ELY2652 UKBB-LLBG
Flight info
| Callsign | ELY2652 |
|---|---|
| Flight time | N/A |
| Altitude | 37000 |
| Route | BASOR M856 RAKUR UM856 MUT UL620 VESAR DCT EMEDA DCT TUZIB L189 ZUKKO |
| Aircraft | B738/M-VGDW/C |
Departure
| Time | 2026-05-08 06:48 |
|---|---|
| Airport | Boryspil International Airport (UKBB) |
Arrival
| Time | N/A |
|---|---|
| Airport | Ben Gurion International Airport (LLBG) |
| Time | Latitude | Longitude | Altitude | Speed | Heading |
|---|---|---|---|---|---|
| 2026-05-08 06:20 | 50.35145 | 30.90078 | 435 ft | 0 kts | 92° |
| 2026-05-08 06:41 | 50.35145 | 30.90075 | 435 ft | 1 kts | 92° |
| 2026-05-08 06:41 | 50.35145 | 30.90048 | 435 ft | 3 kts | 86° |
| 2026-05-08 06:41 | 50.35142 | 30.90017 | 435 ft | 3 kts | 75° |
| 2026-05-08 06:41 | 50.35136 | 30.89987 | 435 ft | 3 kts | 64° |
| 2026-05-08 06:42 | 50.35133 | 30.89979 | 435 ft | 0 kts | 62° |
| 2026-05-08 06:44 | 50.35133 | 30.89980 | 435 ft | 1 kts | 61° |
| 2026-05-08 06:44 | 50.35146 | 30.89988 | 435 ft | 2 kts | 358° |
| 2026-05-08 06:44 | 50.35162 | 30.89990 | 435 ft | 4 kts | 18° |
| 2026-05-08 06:44 | 50.35179 | 30.90053 | 435 ft | 9 kts | 91° |
| 2026-05-08 06:45 | 50.35176 | 30.90197 | 435 ft | 14 kts | 84° |
| 2026-05-08 06:45 | 50.35251 | 30.90262 | 435 ft | 13 kts | 4° |
| 2026-05-08 06:45 | 50.35341 | 30.90270 | 435 ft | 13 kts | 2° |
| 2026-05-08 06:45 | 50.35457 | 30.90276 | 435 ft | 20 kts | 3° |
| 2026-05-08 06:46 | 50.35605 | 30.90289 | 435 ft | 21 kts | 2° |
| 2026-05-08 06:46 | 50.35749 | 30.90299 | 435 ft | 20 kts | 2° |
| 2026-05-08 06:46 | 50.35885 | 30.90309 | 435 ft | 19 kts | 2° |
| 2026-05-08 06:46 | 50.36010 | 30.90322 | 435 ft | 17 kts | 16° |
| 2026-05-08 06:47 | 50.36081 | 30.90442 | 435 ft | 16 kts | 85° |
| 2026-05-08 06:47 | 50.36046 | 30.90590 | 435 ft | 15 kts | 132° |
| 2026-05-08 06:47 | 50.35999 | 30.90645 | 435 ft | 0 kts | 181° |
| 2026-05-08 06:47 | 50.35976 | 30.90642 | 435 ft | 13 kts | 184° |
| 2026-05-08 06:48 | 50.35672 | 30.90618 | 435 ft | 75 kts | 182° |
| 2026-05-08 06:48 | 50.34948 | 30.90565 | 435 ft | 132 kts | 183° |
| 2026-05-08 06:48 | 50.33861 | 30.90484 | 510 ft | 175 kts | 182° |
| 2026-05-08 06:48 | 50.32614 | 30.90400 | 1168 ft | 182 kts | 182° |
| 2026-05-08 06:49 | 50.31350 | 30.90318 | 2046 ft | 180 kts | 183° |
| 2026-05-08 06:49 | 50.30134 | 30.90250 | 3017 ft | 173 kts | 182° |
| 2026-05-08 06:49 | 50.28927 | 30.90239 | 3820 ft | 175 kts | 182° |
| 2026-05-08 06:49 | 50.27687 | 30.90180 | 4448 ft | 186 kts | 187° |
| 2026-05-08 06:50 | 50.26318 | 30.89897 | 4791 ft | 211 kts | 191° |
| 2026-05-08 06:50 | 50.24785 | 30.89570 | 5207 ft | 231 kts | 188° |
| 2026-05-08 06:50 | 50.23153 | 30.89340 | 5883 ft | 242 kts | 186° |
| 2026-05-08 06:50 | 50.21415 | 30.89155 | 6395 ft | 260 kts | 185° |
| 2026-05-08 06:51 | 50.19547 | 30.88986 | 6897 ft | 278 kts | 184° |
| 2026-05-08 06:51 | 50.17549 | 30.88778 | 7310 ft | 298 kts | 186° |
| 2026-05-08 06:51 | 50.15438 | 30.88246 | 7717 ft | 316 kts | 193° |
| 2026-05-08 06:51 | 50.13278 | 30.87309 | 8279 ft | 328 kts | 198° |
| 2026-05-08 06:52 | 50.11091 | 30.86193 | 9007 ft | 334 kts | 198° |
| 2026-05-08 06:52 | 50.08864 | 30.85098 | 9799 ft | 337 kts | 197° |
| 2026-05-08 06:52 | 50.06634 | 30.84026 | 10689 ft | 337 kts | 197° |
| 2026-05-08 06:52 | 50.04368 | 30.83024 | 11439 ft | 341 kts | 194° |
| 2026-05-08 06:53 | 50.02041 | 30.82233 | 12200 ft | 344 kts | 191° |
| 2026-05-08 06:53 | 49.99676 | 30.81575 | 12919 ft | 347 kts | 189° |
| 2026-05-08 06:53 | 49.97277 | 30.80954 | 13597 ft | 351 kts | 189° |
| 2026-05-08 06:53 | 49.94856 | 30.80307 | 14303 ft | 355 kts | 190° |
| 2026-05-08 06:54 | 49.92416 | 30.79636 | 15015 ft | 357 kts | 190° |
| 2026-05-08 06:54 | 49.89956 | 30.78949 | 15674 ft | 361 kts | 190° |
| 2026-05-08 06:54 | 49.87477 | 30.78249 | 16339 ft | 364 kts | 191° |
| 2026-05-08 06:54 | 49.84975 | 30.77526 | 16974 ft | 367 kts | 191° |
| 2026-05-08 06:55 | 49.82456 | 30.76803 | 17601 ft | 370 kts | 191° |
| 2026-05-08 06:55 | 49.79916 | 30.76079 | 18212 ft | 373 kts | 191° |
| 2026-05-08 06:55 | 49.77349 | 30.75348 | 18755 ft | 377 kts | 191° |
| 2026-05-08 06:55 | 49.74749 | 30.74610 | 19288 ft | 382 kts | 191° |
| 2026-05-08 06:56 | 49.72124 | 30.73866 | 19810 ft | 386 kts | 191° |
| 2026-05-08 06:56 | 49.69466 | 30.73114 | 20313 ft | 391 kts | 191° |
| 2026-05-08 06:56 | 49.66780 | 30.72355 | 20819 ft | 394 kts | 191° |
| 2026-05-08 06:56 | 49.64068 | 30.71589 | 21299 ft | 398 kts | 191° |
| 2026-05-08 06:57 | 49.61331 | 30.70816 | 21775 ft | 402 kts | 191° |
| 2026-05-08 06:57 | 49.59504 | 30.70301 | 22088 ft | 404 kts | 191° |
| 2026-05-08 06:57 | 49.56714 | 30.69564 | 22534 ft | 409 kts | 188° |
| 2026-05-08 06:57 | 49.53870 | 30.69186 | 22983 ft | 413 kts | 184° |
| 2026-05-08 06:58 | 49.50991 | 30.69070 | 23412 ft | 416 kts | 181° |
| 2026-05-08 06:58 | 49.48083 | 30.69042 | 23833 ft | 420 kts | 181° |
| 2026-05-08 06:58 | 49.45148 | 30.69000 | 24245 ft | 423 kts | 181° |
| 2026-05-08 06:58 | 49.42191 | 30.68948 | 24664 ft | 426 kts | 181° |
| 2026-05-08 06:59 | 49.39221 | 30.68889 | 25051 ft | 429 kts | 181° |
| 2026-05-08 06:59 | 49.35243 | 30.68806 | 25561 ft | 433 kts | 181° |
| 2026-05-08 06:59 | 49.33207 | 30.68763 | 25809 ft | 435 kts | 181° |
| 2026-05-08 06:59 | 49.30164 | 30.68699 | 26173 ft | 438 kts | 181° |
| 2026-05-08 07:00 | 49.27110 | 30.68634 | 26532 ft | 441 kts | 182° |
| 2026-05-08 07:00 | 49.24036 | 30.68568 | 26887 ft | 443 kts | 182° |
| 2026-05-08 07:00 | 49.20939 | 30.68502 | 27223 ft | 446 kts | 182° |
| 2026-05-08 07:00 | 49.17833 | 30.68437 | 27553 ft | 448 kts | 182° |
| 2026-05-08 07:01 | 49.14699 | 30.68370 | 27873 ft | 451 kts | 182° |
| 2026-05-08 07:01 | 49.11553 | 30.68304 | 28179 ft | 453 kts | 182° |
| 2026-05-08 07:01 | 49.08395 | 30.68237 | 28484 ft | 456 kts | 182° |
| 2026-05-08 07:01 | 49.05216 | 30.68170 | 28775 ft | 458 kts | 182° |
| 2026-05-08 07:02 | 49.02020 | 30.68103 | 29063 ft | 460 kts | 182° |
| 2026-05-08 07:02 | 48.98810 | 30.68035 | 29351 ft | 462 kts | 182° |
| 2026-05-08 07:02 | 48.95584 | 30.67968 | 29625 ft | 464 kts | 182° |
| 2026-05-08 07:02 | 48.92351 | 30.67900 | 29958 ft | 465 kts | 182° |
| 2026-05-08 07:03 | 48.89120 | 30.67832 | 30370 ft | 463 kts | 182° |
| 2026-05-08 07:03 | 48.85905 | 30.67766 | 30760 ft | 462 kts | 182° |
| 2026-05-08 07:03 | 48.82696 | 30.67697 | 31125 ft | 461 kts | 182° |
| 2026-05-08 07:03 | 48.79492 | 30.67630 | 31482 ft | 460 kts | 182° |
| 2026-05-08 07:04 | 48.76293 | 30.67563 | 31836 ft | 459 kts | 182° |
| 2026-05-08 07:04 | 48.73102 | 30.67496 | 32179 ft | 459 kts | 182° |
| 2026-05-08 07:04 | 48.69916 | 30.67429 | 32526 ft | 458 kts | 182° |
| 2026-05-08 07:04 | 48.66733 | 30.67362 | 32860 ft | 457 kts | 182° |
| 2026-05-08 07:05 | 48.63559 | 30.67297 | 33183 ft | 456 kts | 182° |
| 2026-05-08 07:05 | 48.60386 | 30.67231 | 33500 ft | 456 kts | 182° |
| 2026-05-08 07:05 | 48.57259 | 30.67166 | 33812 ft | 455 kts | 182° |
| 2026-05-08 07:05 | 48.54101 | 30.67100 | 34115 ft | 454 kts | 182° |
| 2026-05-08 07:06 | 48.50939 | 30.67035 | 34417 ft | 454 kts | 182° |
| 2026-05-08 07:06 | 48.47784 | 30.66969 | 34703 ft | 453 kts | 182° |
| 2026-05-08 07:06 | 48.44634 | 30.66904 | 34989 ft | 453 kts | 182° |
| 2026-05-08 07:06 | 48.41490 | 30.66839 | 35276 ft | 452 kts | 182° |
| 2026-05-08 07:07 | 48.38347 | 30.66774 | 35540 ft | 452 kts | 182° |
| 2026-05-08 07:07 | 48.35202 | 30.66709 | 35818 ft | 451 kts | 182° |
| 2026-05-08 07:07 | 48.32066 | 30.66644 | 36084 ft | 450 kts | 182° |
| 2026-05-08 07:07 | 48.28933 | 30.66580 | 36340 ft | 450 kts | 182° |
| 2026-05-08 07:08 | 48.25807 | 30.66516 | 36589 ft | 450 kts | 182° |
| 2026-05-08 07:08 | 48.22681 | 30.66453 | 36843 ft | 449 kts | 182° |
| 2026-05-08 07:08 | 48.19557 | 30.66389 | 37051 ft | 450 kts | 182° |
| 2026-05-08 07:08 | 48.16419 | 30.66325 | 37072 ft | 452 kts | 182° |
| 2026-05-08 07:09 | 48.10149 | 30.66223 | 37074 ft | 450 kts | 180° |
| 2026-05-08 07:09 | 48.03922 | 30.67133 | 37076 ft | 451 kts | 174° |
| 2026-05-08 07:10 | 47.97706 | 30.68424 | 37076 ft | 452 kts | 174° |
| 2026-05-08 07:10 | 47.91463 | 30.69705 | 37077 ft | 454 kts | 174° |
| 2026-05-08 07:11 | 47.85205 | 30.70981 | 37073 ft | 453 kts | 174° |
| 2026-05-08 07:11 | 47.78995 | 30.72241 | 37069 ft | 453 kts | 174° |
| 2026-05-08 07:12 | 47.72740 | 30.73515 | 37069 ft | 454 kts | 174° |
| 2026-05-08 07:12 | 47.66485 | 30.74792 | 37069 ft | 454 kts | 174° |
| 2026-05-08 07:13 | 47.60225 | 30.76061 | 37070 ft | 454 kts | 174° |
| 2026-05-08 07:13 | 47.53963 | 30.77325 | 37071 ft | 454 kts | 174° |
| 2026-05-08 07:14 | 47.47703 | 30.78584 | 37071 ft | 454 kts | 174° |
| 2026-05-08 07:14 | 47.41432 | 30.79843 | 37071 ft | 455 kts | 174° |
| 2026-05-08 07:15 | 47.35153 | 30.81099 | 37072 ft | 455 kts | 174° |
| 2026-05-08 07:15 | 47.28873 | 30.82353 | 37072 ft | 455 kts | 174° |
| 2026-05-08 07:16 | 47.22584 | 30.83606 | 37073 ft | 456 kts | 174° |
| 2026-05-08 07:16 | 47.16298 | 30.84855 | 37073 ft | 456 kts | 174° |
| 2026-05-08 07:17 | 47.10010 | 30.86101 | 37073 ft | 456 kts | 174° |
| 2026-05-08 07:17 | 47.03712 | 30.87346 | 37074 ft | 457 kts | 174° |
| 2026-05-08 07:18 | 46.97414 | 30.88589 | 37074 ft | 457 kts | 174° |
| 2026-05-08 07:18 | 46.91114 | 30.89829 | 37081 ft | 457 kts | 174° |
| 2026-05-08 07:19 | 46.84808 | 30.91067 | 37089 ft | 457 kts | 174° |
| 2026-05-08 07:19 | 46.78499 | 30.92303 | 37090 ft | 457 kts | 174° |
| 2026-05-08 07:20 | 46.72193 | 30.93535 | 37090 ft | 457 kts | 174° |
| 2026-05-08 07:20 | 46.65885 | 30.94765 | 37091 ft | 458 kts | 174° |
| 2026-05-08 07:21 | 46.59556 | 30.95996 | 37091 ft | 458 kts | 174° |
| 2026-05-08 07:21 | 46.53236 | 30.97222 | 37092 ft | 459 kts | 174° |
| 2026-05-08 07:22 | 46.46908 | 30.98447 | 37092 ft | 459 kts | 174° |
| 2026-05-08 07:22 | 46.40582 | 30.99669 | 37093 ft | 459 kts | 174° |
| 2026-05-08 07:23 | 46.34253 | 31.00888 | 37094 ft | 459 kts | 174° |
| 2026-05-08 07:23 | 46.27950 | 31.02100 | 37096 ft | 460 kts | 174° |
| 2026-05-08 07:24 | 46.21606 | 31.03316 | 37099 ft | 460 kts | 174° |
| 2026-05-08 07:24 | 46.15258 | 31.04538 | 37100 ft | 460 kts | 174° |
| 2026-05-08 07:25 | 46.08910 | 31.05752 | 37101 ft | 460 kts | 174° |
| 2026-05-08 07:26 | 45.99390 | 31.07560 | 37102 ft | 460 kts | 174° |
| 2026-05-08 07:26 | 45.93021 | 31.08766 | 37102 ft | 463 kts | 174° |
| 2026-05-08 07:27 | 45.86624 | 31.09936 | 37103 ft | 463 kts | 176° |
| 2026-05-08 07:27 | 45.80208 | 31.10274 | 37104 ft | 461 kts | 181° |
| 2026-05-08 07:28 | 45.73795 | 31.10292 | 37104 ft | 461 kts | 181° |
| 2026-05-08 07:28 | 45.67369 | 31.10383 | 37105 ft | 462 kts | 181° |
| 2026-05-08 07:29 | 45.60938 | 31.10498 | 37106 ft | 463 kts | 181° |
| 2026-05-08 07:29 | 45.54500 | 31.10621 | 37106 ft | 462 kts | 181° |
| 2026-05-08 07:30 | 45.48064 | 31.10745 | 37107 ft | 463 kts | 181° |
| 2026-05-08 07:30 | 45.41628 | 31.10868 | 37107 ft | 463 kts | 181° |
| 2026-05-08 07:31 | 45.35191 | 31.10991 | 37108 ft | 463 kts | 181° |
| 2026-05-08 07:31 | 45.28749 | 31.11141 | 37108 ft | 463 kts | 179° |
| 2026-05-08 07:32 | 45.22356 | 31.12373 | 37111 ft | 465 kts | 169° |
| 2026-05-08 07:32 | 45.16068 | 31.14579 | 37110 ft | 466 kts | 167° |
| 2026-05-08 07:33 | 45.09774 | 31.16831 | 37111 ft | 466 kts | 167° |
| 2026-05-08 07:33 | 45.03475 | 31.19060 | 37120 ft | 466 kts | 167° |
| 2026-05-08 07:34 | 44.97172 | 31.21278 | 37127 ft | 467 kts | 167° |
| 2026-05-08 07:34 | 44.90917 | 31.23482 | 37128 ft | 467 kts | 167° |
| 2026-05-08 07:35 | 44.84608 | 31.25711 | 37129 ft | 468 kts | 167° |
| 2026-05-08 07:35 | 44.78249 | 31.27941 | 37129 ft | 468 kts | 167° |
| 2026-05-08 07:36 | 44.71974 | 31.30134 | 37130 ft | 468 kts | 167° |
| 2026-05-08 07:36 | 44.65655 | 31.32337 | 37130 ft | 468 kts | 167° |
| 2026-05-08 07:37 | 44.59321 | 31.34552 | 37131 ft | 469 kts | 167° |
| 2026-05-08 07:37 | 44.52984 | 31.36754 | 37131 ft | 469 kts | 167° |
| 2026-05-08 07:38 | 44.46645 | 31.38944 | 37132 ft | 469 kts | 167° |
| 2026-05-08 07:38 | 44.40302 | 31.41130 | 37133 ft | 470 kts | 167° |
| 2026-05-08 07:39 | 44.33943 | 31.43317 | 37138 ft | 470 kts | 167° |
| 2026-05-08 07:39 | 44.27584 | 31.45507 | 37138 ft | 470 kts | 167° |
| 2026-05-08 07:40 | 44.21231 | 31.47691 | 37139 ft | 471 kts | 167° |
| 2026-05-08 07:40 | 44.14866 | 31.49874 | 37139 ft | 472 kts | 167° |
| 2026-05-08 07:41 | 44.08488 | 31.52058 | 37146 ft | 472 kts | 167° |
| 2026-05-08 07:41 | 44.02159 | 31.54220 | 37149 ft | 472 kts | 167° |
| 2026-05-08 07:42 | 43.95785 | 31.56404 | 37150 ft | 473 kts | 167° |
| 2026-05-08 07:42 | 43.89395 | 31.58595 | 37151 ft | 473 kts | 167° |
| 2026-05-08 07:43 | 43.83013 | 31.60771 | 37152 ft | 473 kts | 167° |
| 2026-05-08 07:43 | 43.76623 | 31.62951 | 37152 ft | 474 kts | 167° |
| 2026-05-08 07:44 | 43.70221 | 31.65126 | 37153 ft | 473 kts | 167° |
| 2026-05-08 07:44 | 43.63821 | 31.67286 | 37152 ft | 473 kts | 167° |
| 2026-05-08 07:45 | 43.57421 | 31.69440 | 37153 ft | 473 kts | 167° |
| 2026-05-08 07:45 | 43.51023 | 31.71589 | 37154 ft | 473 kts | 167° |
| 2026-05-08 07:46 | 43.44621 | 31.73725 | 37154 ft | 473 kts | 168° |
| 2026-05-08 07:46 | 43.38209 | 31.75822 | 37155 ft | 474 kts | 168° |
| 2026-05-08 07:47 | 43.31787 | 31.77921 | 37156 ft | 474 kts | 168° |
| 2026-05-08 07:47 | 43.26459 | 31.79659 | 37157 ft | 474 kts | 168° |
| 2026-05-08 07:48 | 43.20043 | 31.81750 | 37169 ft | 474 kts | 168° |
| 2026-05-08 07:48 | 43.12587 | 31.84182 | 37179 ft | 475 kts | 168° |
| 2026-05-08 07:49 | 43.07205 | 31.85955 | 37181 ft | 474 kts | 168° |
| 2026-05-08 07:49 | 43.00779 | 31.88044 | 37181 ft | 475 kts | 168° |
| 2026-05-08 07:50 | 42.94346 | 31.90123 | 37182 ft | 475 kts | 168° |
| 2026-05-08 07:50 | 42.87901 | 31.92201 | 37182 ft | 476 kts | 168° |
| 2026-05-08 07:51 | 42.81454 | 31.94276 | 37183 ft | 477 kts | 168° |
| 2026-05-08 07:51 | 42.75045 | 31.96377 | 37183 ft | 477 kts | 168° |
| 2026-05-08 07:52 | 42.68594 | 31.98507 | 37183 ft | 477 kts | 168° |
| 2026-05-08 07:52 | 42.62132 | 32.00635 | 37184 ft | 478 kts | 168° |
| 2026-05-08 07:53 | 42.55666 | 32.02758 | 37184 ft | 479 kts | 168° |
| 2026-05-08 07:53 | 42.49188 | 32.04882 | 37184 ft | 479 kts | 168° |
| 2026-05-08 07:54 | 42.42714 | 32.07015 | 37184 ft | 479 kts | 168° |
| 2026-05-08 07:54 | 42.36226 | 32.09148 | 37183 ft | 480 kts | 168° |
| 2026-05-08 07:55 | 42.29739 | 32.11269 | 37183 ft | 480 kts | 168° |
| 2026-05-08 07:55 | 42.23258 | 32.13382 | 37183 ft | 479 kts | 168° |
| 2026-05-08 07:56 | 42.16765 | 32.15494 | 37182 ft | 480 kts | 168° |
| 2026-05-08 07:56 | 42.10268 | 32.17602 | 37182 ft | 480 kts | 168° |
| 2026-05-08 07:57 | 42.03780 | 32.19705 | 37183 ft | 480 kts | 168° |
| 2026-05-08 07:57 | 41.97324 | 32.21804 | 37183 ft | 480 kts | 168° |
| 2026-05-08 07:58 | 41.90829 | 32.23897 | 37183 ft | 480 kts | 168° |
| 2026-05-08 07:58 | 41.84331 | 32.25984 | 37182 ft | 480 kts | 168° |
| 2026-05-08 07:59 | 41.77836 | 32.28066 | 37181 ft | 480 kts | 168° |
| 2026-05-08 07:59 | 41.71337 | 32.30147 | 37180 ft | 480 kts | 168° |
| 2026-05-08 08:00 | 41.64835 | 32.32201 | 37180 ft | 480 kts | 168° |
| 2026-05-08 08:00 | 41.58332 | 32.34252 | 37180 ft | 480 kts | 168° |
| 2026-05-08 08:01 | 41.51825 | 32.36300 | 37180 ft | 480 kts | 168° |
| 2026-05-08 08:01 | 41.45316 | 32.38344 | 37181 ft | 481 kts | 169° |
| 2026-05-08 08:02 | 41.38804 | 32.40386 | 37181 ft | 481 kts | 168° |
| 2026-05-08 08:02 | 41.32295 | 32.42445 | 37186 ft | 481 kts | 169° |
| 2026-05-08 08:03 | 41.25785 | 32.44490 | 37194 ft | 481 kts | 169° |
| 2026-05-08 08:03 | 41.19274 | 32.46528 | 37198 ft | 480 kts | 169° |
| 2026-05-08 08:04 | 41.12762 | 32.48560 | 37202 ft | 481 kts | 169° |
| 2026-05-08 08:04 | 41.06239 | 32.50591 | 37207 ft | 481 kts | 169° |
| 2026-05-08 08:05 | 40.99720 | 32.52616 | 37211 ft | 481 kts | 169° |
| 2026-05-08 08:05 | 40.93206 | 32.54635 | 37216 ft | 481 kts | 169° |
| 2026-05-08 08:06 | 40.86676 | 32.56656 | 37221 ft | 482 kts | 169° |
| 2026-05-08 08:06 | 40.80150 | 32.58671 | 37225 ft | 482 kts | 169° |
| 2026-05-08 08:07 | 40.73673 | 32.60667 | 37230 ft | 481 kts | 169° |
| 2026-05-08 08:07 | 40.67148 | 32.62674 | 37235 ft | 482 kts | 169° |
| 2026-05-08 08:08 | 40.60570 | 32.64693 | 37239 ft | 482 kts | 169° |
| 2026-05-08 08:08 | 40.54078 | 32.66682 | 37243 ft | 482 kts | 169° |
| 2026-05-08 08:09 | 40.47555 | 32.68676 | 37247 ft | 482 kts | 169° |
| 2026-05-08 08:09 | 40.41021 | 32.70670 | 37251 ft | 482 kts | 169° |
| 2026-05-08 08:10 | 40.34493 | 32.72669 | 37253 ft | 482 kts | 169° |
| 2026-05-08 08:10 | 40.27966 | 32.74654 | 37256 ft | 482 kts | 169° |
| 2026-05-08 08:11 | 40.21436 | 32.76631 | 37258 ft | 482 kts | 169° |
| 2026-05-08 08:11 | 40.14906 | 32.78604 | 37258 ft | 482 kts | 169° |
| 2026-05-08 08:12 | 40.08363 | 32.80577 | 37259 ft | 483 kts | 170° |
| 2026-05-08 08:12 | 40.01759 | 32.81993 | 37260 ft | 480 kts | 176° |
| 2026-05-08 08:13 | 39.95126 | 32.82953 | 37259 ft | 481 kts | 176° |
| 2026-05-08 08:13 | 39.88471 | 32.83985 | 37259 ft | 481 kts | 176° |
| 2026-05-08 08:14 | 39.81827 | 32.85042 | 37259 ft | 481 kts | 176° |
| 2026-05-08 08:14 | 39.75187 | 32.86115 | 37259 ft | 481 kts | 176° |
| 2026-05-08 08:15 | 39.68538 | 32.87181 | 37259 ft | 481 kts | 176° |
| 2026-05-08 08:15 | 39.61891 | 32.88241 | 37260 ft | 481 kts | 176° |
| 2026-05-08 08:16 | 39.55240 | 32.89301 | 37260 ft | 482 kts | 176° |
| 2026-05-08 08:16 | 39.48582 | 32.90359 | 37261 ft | 482 kts | 176° |
| 2026-05-08 08:17 | 39.41918 | 32.91412 | 37261 ft | 482 kts | 176° |
| 2026-05-08 08:17 | 39.35259 | 32.92450 | 37261 ft | 482 kts | 177° |
| 2026-05-08 08:18 | 39.28620 | 32.93340 | 37263 ft | 483 kts | 177° |
| 2026-05-08 08:18 | 39.21951 | 32.94252 | 37265 ft | 482 kts | 177° |
| 2026-05-08 08:19 | 39.15279 | 32.95251 | 37273 ft | 483 kts | 176° |
| 2026-05-08 08:19 | 39.08604 | 32.96270 | 37275 ft | 483 kts | 176° |
| 2026-05-08 08:20 | 39.01929 | 32.97289 | 37275 ft | 483 kts | 176° |
| 2026-05-08 08:20 | 38.95244 | 32.98304 | 37276 ft | 484 kts | 176° |
| 2026-05-08 08:21 | 38.88556 | 32.99313 | 37278 ft | 484 kts | 176° |
| 2026-05-08 08:21 | 38.81864 | 33.00320 | 37279 ft | 484 kts | 177° |
| 2026-05-08 08:22 | 38.75183 | 33.01325 | 37279 ft | 484 kts | 177° |
| 2026-05-08 08:22 | 38.68498 | 33.02313 | 37276 ft | 484 kts | 177° |
| 2026-05-08 08:23 | 38.61800 | 33.03288 | 37276 ft | 484 kts | 177° |
| 2026-05-08 08:23 | 38.55106 | 33.04261 | 37277 ft | 484 kts | 177° |
| 2026-05-08 08:24 | 38.48414 | 33.05233 | 37278 ft | 484 kts | 177° |
| 2026-05-08 08:24 | 38.41712 | 33.06205 | 37279 ft | 485 kts | 177° |
| 2026-05-08 08:25 | 38.35008 | 33.07181 | 37280 ft | 485 kts | 177° |
| 2026-05-08 08:25 | 38.28305 | 33.08159 | 37280 ft | 485 kts | 177° |
| 2026-05-08 08:26 | 38.21601 | 33.09128 | 37281 ft | 485 kts | 177° |
| 2026-05-08 08:26 | 38.14899 | 33.10092 | 37282 ft | 485 kts | 177° |